DEDMZ EDDV-EDVK

Flight info

Callsign DEDMZ
Flight time 0h 47m
Altitude 2200
Route DCT
Aircraft C172/L-SKYGRY/SU2

Departure

Time 2026-05-05 14:06
Airport Hannover Airport (EDDV)

Arrival

Time 2026-05-05 14:53
Airport Kassel Airport (EDVK)
Time Latitude Longitude Altitude Speed Heading
2026-05-05 13:57 52.46391 9.69046 173 ft 0 kts 92°
2026-05-05 14:02 52.46391 9.69055 173 ft 4 kts 93°
2026-05-05 14:02 52.46409 9.68976 173 ft 14 kts 284°
2026-05-05 14:02 52.46474 9.68895 174 ft 19 kts 274°
2026-05-05 14:02 52.46432 9.68856 173 ft 0 kts 97°
2026-05-05 14:03 52.46456 9.69027 174 ft 13 kts 27°
2026-05-05 14:03 52.46473 9.68921 174 ft 20 kts 271°
2026-05-05 14:03 52.46475 9.68583 171 ft 36 kts 268°
2026-05-05 14:03 52.46474 9.68367 171 ft 2 kts 321°
2026-05-05 14:04 52.46488 9.68474 170 ft 1 kts 91°
2026-05-05 14:04 52.46487 9.68486 170 ft 11 kts 94°
2026-05-05 14:05 52.46468 9.68928 174 ft 65 kts 92°
2026-05-05 14:05 52.46440 9.69821 314 ft 81 kts 93°
2026-05-05 14:05 52.46447 9.70751 540 ft 87 kts 84°
2026-05-05 14:05 52.46369 9.71770 750 ft 80 kts 118°
2026-05-05 14:06 52.46076 9.72561 1043 ft 78 kts 128°
2026-05-05 14:06 52.45614 9.73240 1208 ft 93 kts 146°
2026-05-05 14:06 52.45042 9.73845 1344 ft 101 kts 149°
2026-05-05 14:06 52.44376 9.74441 1292 ft 118 kts 157°
2026-05-05 14:07 52.43633 9.75108 1246 ft 123 kts 147°
2026-05-05 14:07 52.42939 9.75917 1253 ft 122 kts 145°
2026-05-05 14:07 52.42258 9.76745 1245 ft 123 kts 141°
2026-05-05 14:07 52.41746 9.77864 1244 ft 123 kts 121°
2026-05-05 14:08 52.41446 9.79175 1228 ft 126 kts 109°
2026-05-05 14:08 52.41168 9.80551 1232 ft 128 kts 109°
2026-05-05 14:08 52.40886 9.81947 1240 ft 130 kts 109°
2026-05-05 14:08 52.40601 9.83358 1245 ft 131 kts 109°
2026-05-05 14:09 52.40321 9.84730 1395 ft 117 kts 110°
2026-05-05 14:09 52.40089 9.85882 1717 ft 105 kts 108°
2026-05-05 14:09 52.39844 9.87089 1716 ft 120 kts 109°
2026-05-05 14:09 52.39576 9.88426 1720 ft 127 kts 107°
2026-05-05 14:10 52.39362 9.89847 1720 ft 130 kts 104°
2026-05-05 14:10 52.39153 9.91269 1717 ft 127 kts 104°
2026-05-05 14:10 52.38950 9.92662 1714 ft 125 kts 104°
2026-05-05 14:10 52.38748 9.94041 1713 ft 124 kts 104°
2026-05-05 14:11 52.38549 9.95409 1715 ft 124 kts 104°
2026-05-05 14:11 52.38347 9.96791 1714 ft 125 kts 103°
2026-05-05 14:11 52.38212 9.98177 1713 ft 125 kts 97°
2026-05-05 14:11 52.38139 9.99606 1712 ft 124 kts 94°
2026-05-05 14:12 52.38085 10.00993 1712 ft 124 kts 94°
2026-05-05 14:12 52.38030 10.02402 1711 ft 124 kts 94°
2026-05-05 14:12 52.37976 10.03810 1711 ft 124 kts 94°
2026-05-05 14:12 52.37924 10.05214 1711 ft 124 kts 94°
2026-05-05 14:13 52.37863 10.06614 1709 ft 123 kts 99°
2026-05-05 14:13 52.37515 10.07875 1717 ft 122 kts 121°
2026-05-05 14:13 52.37088 10.09081 1718 ft 123 kts 121°
2026-05-05 14:13 52.36654 10.10283 1716 ft 123 kts 126°
2026-05-05 14:14 52.35920 10.10823 1712 ft 120 kts 189°
2026-05-05 14:14 52.35163 10.10280 1725 ft 119 kts 207°
2026-05-05 14:14 52.34420 10.09672 1727 ft 120 kts 208°
2026-05-05 14:14 52.33677 10.09057 1729 ft 120 kts 208°
2026-05-05 14:15 52.32924 10.08437 1726 ft 121 kts 208°
2026-05-05 14:15 52.32168 10.07810 1724 ft 123 kts 208°
2026-05-05 14:15 52.31408 10.07183 1725 ft 122 kts 208°
2026-05-05 14:15 52.30648 10.06554 1725 ft 122 kts 208°
2026-05-05 14:16 52.29888 10.05926 1725 ft 123 kts 208°
2026-05-05 14:16 52.29124 10.05294 1724 ft 123 kts 208°
2026-05-05 14:16 52.28362 10.04664 1725 ft 122 kts 208°
2026-05-05 14:16 52.27858 10.04247 1724 ft 123 kts 208°
2026-05-05 14:17 52.26884 10.03446 1853 ft 114 kts 208°
2026-05-05 14:17 52.26406 10.03052 1855 ft 118 kts 208°
2026-05-05 14:17 52.25669 10.02443 1857 ft 120 kts 208°
2026-05-05 14:17 52.24923 10.01827 1858 ft 121 kts 208°
2026-05-05 14:18 52.24170 10.01206 1859 ft 122 kts 208°
2026-05-05 14:18 52.23412 10.00581 1860 ft 122 kts 207°
2026-05-05 14:18 52.22654 9.99954 1857 ft 122 kts 208°
2026-05-05 14:18 52.21903 9.99332 1861 ft 121 kts 208°
2026-05-05 14:19 52.21405 9.98921 1859 ft 121 kts 208°
2026-05-05 14:19 52.20391 9.98085 1858 ft 121 kts 208°
2026-05-05 14:19 52.19633 9.97459 1857 ft 121 kts 208°
2026-05-05 14:19 52.18885 9.96844 1857 ft 120 kts 208°
2026-05-05 14:20 52.18137 9.96230 1859 ft 121 kts 208°
2026-05-05 14:20 52.17379 9.95607 1862 ft 123 kts 208°
2026-05-05 14:20 52.16620 9.94980 1858 ft 122 kts 208°
2026-05-05 14:20 52.15868 9.94360 1859 ft 121 kts 208°
2026-05-05 14:21 52.15114 9.93744 1857 ft 121 kts 208°
2026-05-05 14:21 52.14365 9.93126 1857 ft 121 kts 208°
2026-05-05 14:21 52.13616 9.92510 1856 ft 120 kts 208°
2026-05-05 14:21 52.12870 9.91896 1856 ft 120 kts 208°
2026-05-05 14:22 52.12124 9.91282 1855 ft 120 kts 208°
2026-05-05 14:22 52.11380 9.90667 1856 ft 120 kts 208°
2026-05-05 14:22 52.10633 9.90055 1856 ft 120 kts 208°
2026-05-05 14:22 52.09885 9.89442 1857 ft 120 kts 208°
2026-05-05 14:23 52.09147 9.88836 1856 ft 120 kts 208°
2026-05-05 14:23 52.08400 9.88223 1857 ft 120 kts 208°
2026-05-05 14:23 52.07652 9.87611 1856 ft 120 kts 208°
2026-05-05 14:23 52.06913 9.86947 1860 ft 123 kts 214°
2026-05-05 14:24 52.06188 9.86215 1857 ft 122 kts 212°
2026-05-05 14:24 52.05465 9.85511 1858 ft 121 kts 212°
2026-05-05 14:24 52.04742 9.84811 1857 ft 121 kts 212°
2026-05-05 14:24 52.04019 9.84112 1857 ft 121 kts 212°
2026-05-05 14:25 52.03298 9.83413 1857 ft 121 kts 212°
2026-05-05 14:25 52.02578 9.82715 1857 ft 121 kts 212°
2026-05-05 14:25 52.01858 9.82015 1858 ft 121 kts 212°
2026-05-05 14:25 52.01135 9.81315 1857 ft 121 kts 212°
2026-05-05 14:26 52.00411 9.80616 1857 ft 121 kts 212°
2026-05-05 14:26 51.99689 9.79918 1857 ft 121 kts 212°
2026-05-05 14:26 51.98967 9.79217 1859 ft 122 kts 212°
2026-05-05 14:26 51.98240 9.78515 1859 ft 121 kts 212°
2026-05-05 14:27 51.97511 9.77810 1861 ft 123 kts 212°
2026-05-05 14:27 51.96781 9.77104 1859 ft 122 kts 212°
2026-05-05 14:27 51.96054 9.76402 1858 ft 121 kts 212°
2026-05-05 14:27 51.95331 9.75704 1857 ft 121 kts 212°
2026-05-05 14:28 51.94608 9.75005 1860 ft 121 kts 212°
2026-05-05 14:28 51.93885 9.74307 1857 ft 121 kts 212°
2026-05-05 14:28 51.93164 9.73611 1857 ft 120 kts 212°
2026-05-05 14:28 51.92446 9.72919 1856 ft 120 kts 212°
2026-05-05 14:29 51.91728 9.72226 1856 ft 120 kts 212°
2026-05-05 14:29 51.91012 9.71532 1857 ft 120 kts 212°
2026-05-05 14:29 51.90292 9.70837 1864 ft 120 kts 212°
2026-05-05 14:29 51.89579 9.70152 1883 ft 120 kts 212°
2026-05-05 14:30 51.88860 9.69459 1882 ft 121 kts 212°
2026-05-05 14:30 51.88139 9.68763 1883 ft 121 kts 212°
2026-05-05 14:30 51.87416 9.68066 1885 ft 121 kts 212°
2026-05-05 14:30 51.86688 9.67365 1881 ft 122 kts 212°
2026-05-05 14:31 51.86198 9.66893 1883 ft 121 kts 212°
2026-05-05 14:36 51.85748 9.66460 1849 ft 123 kts 212°
2026-05-05 14:36 51.85024 9.65763 1877 ft 121 kts 212°
2026-05-05 14:36 51.84303 9.65068 1880 ft 121 kts 212°
2026-05-05 14:37 51.83579 9.64369 1883 ft 122 kts 211°
2026-05-05 14:37 51.82850 9.63668 1884 ft 122 kts 212°
2026-05-05 14:37 51.82119 9.62963 1883 ft 122 kts 212°
2026-05-05 14:37 51.81398 9.62269 1884 ft 122 kts 212°
2026-05-05 14:38 51.80682 9.61580 2069 ft 107 kts 212°
2026-05-05 14:38 51.80061 9.61038 2191 ft 108 kts 210°
2026-05-05 14:38 51.79395 9.60424 2199 ft 114 kts 211°
2026-05-05 14:38 51.78705 9.59762 2203 ft 117 kts 212°
2026-05-05 14:39 51.78004 9.59087 2205 ft 118 kts 212°
2026-05-05 14:39 51.77297 9.58401 2208 ft 119 kts 212°
2026-05-05 14:39 51.76584 9.57714 2208 ft 120 kts 212°
2026-05-05 14:39 51.75869 9.57025 2209 ft 120 kts 212°
2026-05-05 14:40 51.75152 9.56333 2209 ft 120 kts 212°
2026-05-05 14:40 51.74432 9.55641 2210 ft 120 kts 212°
2026-05-05 14:40 51.73714 9.54947 2210 ft 121 kts 212°
2026-05-05 14:40 51.72994 9.54254 2210 ft 120 kts 212°
2026-05-05 14:41 51.72273 9.53560 2211 ft 121 kts 212°
2026-05-05 14:41 51.71548 9.52867 2212 ft 121 kts 212°
2026-05-05 14:41 51.70826 9.52177 2210 ft 120 kts 212°
2026-05-05 14:41 51.70110 9.51490 2210 ft 120 kts 212°
2026-05-05 14:42 51.69389 9.50799 2210 ft 121 kts 212°
2026-05-05 14:42 51.68670 9.50110 2211 ft 120 kts 212°
2026-05-05 14:42 51.67950 9.49421 2210 ft 120 kts 212°
2026-05-05 14:42 51.67231 9.48733 2210 ft 120 kts 212°
2026-05-05 14:43 51.66513 9.48047 2210 ft 120 kts 212°
2026-05-05 14:43 51.65795 9.47360 2210 ft 120 kts 212°
2026-05-05 14:43 51.65077 9.46675 2211 ft 120 kts 212°
2026-05-05 14:43 51.64356 9.45986 2212 ft 121 kts 212°
2026-05-05 14:44 51.63633 9.45296 2212 ft 121 kts 212°
2026-05-05 14:44 51.62911 9.44606 2212 ft 121 kts 212°
2026-05-05 14:44 51.62182 9.43911 2213 ft 122 kts 212°
2026-05-05 14:44 51.61455 9.43217 2211 ft 121 kts 212°
2026-05-05 14:45 51.60734 9.42530 2210 ft 120 kts 212°
2026-05-05 14:45 51.60017 9.41845 2210 ft 120 kts 212°
2026-05-05 14:45 51.59299 9.41159 2209 ft 120 kts 212°
2026-05-05 14:45 51.58581 9.40475 2213 ft 121 kts 211°
2026-05-05 14:46 51.57856 9.39781 2210 ft 121 kts 212°
2026-05-05 14:46 51.57136 9.39094 2209 ft 120 kts 212°
2026-05-05 14:46 51.56420 9.38414 2208 ft 119 kts 212°
2026-05-05 14:46 51.55701 9.37729 2210 ft 121 kts 212°
2026-05-05 14:47 51.54981 9.37041 2208 ft 120 kts 212°
2026-05-05 14:47 51.54257 9.36200 2190 ft 121 kts 224°
2026-05-05 14:47 51.53685 9.35212 2210 ft 120 kts 230°
2026-05-05 14:47 51.53201 9.34129 2223 ft 121 kts 242°
2026-05-05 14:48 51.52896 9.32878 2236 ft 119 kts 252°
2026-05-05 14:48 51.52622 9.31633 2243 ft 119 kts 251°
2026-05-05 14:48 51.52390 9.30350 2211 ft 120 kts 258°
2026-05-05 14:48 51.52289 9.29023 2229 ft 119 kts 265°
2026-05-05 14:49 51.52087 9.27744 2207 ft 122 kts 233°
2026-05-05 14:49 51.51333 9.27264 2201 ft 122 kts 178°
2026-05-05 14:49 51.50500 9.27493 2182 ft 124 kts 161°
2026-05-05 14:49 51.49726 9.28118 2184 ft 122 kts 144°
2026-05-05 14:50 51.49101 9.29005 2224 ft 120 kts 138°
2026-05-05 14:50 51.48459 9.29892 2201 ft 122 kts 142°
2026-05-05 14:50 51.47778 9.30688 2224 ft 121 kts 146°
2026-05-05 14:50 51.47095 9.31487 2207 ft 123 kts 143°
2026-05-05 14:51 51.46392 9.32341 2033 ft 127 kts 144°
2026-05-05 14:51 51.45730 9.33114 1982 ft 109 kts 147°
2026-05-05 14:51 51.45116 9.33723 1933 ft 101 kts 151°
2026-05-05 14:51 51.44692 9.34101 1672 ft 116 kts 152°
2026-05-05 14:52 51.44035 9.34691 1502 ft 99 kts 154°
2026-05-05 14:52 51.43440 9.35138 1418 ft 95 kts 156°
2026-05-05 14:52 51.42876 9.35641 1227 ft 91 kts 141°
2026-05-05 14:52 51.42482 9.36334 1068 ft 81 kts 125°
2026-05-05 14:53 51.42244 9.37087 940 ft 70 kts 108°
2026-05-05 14:53 51.42151 9.37788 852 ft 56 kts 98°
2026-05-05 14:53 51.42116 9.38327 859 ft 42 kts 95°
2026-05-05 14:53 51.42093 9.38741 859 ft 33 kts 95°
2026-05-05 14:54 51.42049 9.38902 854 ft 1 kts 200°
2026-05-05 14:54 51.41967 9.38871 859 ft 20 kts 175°
2026-05-05 14:54 51.41926 9.39073 859 ft 29 kts 94°
2026-05-05 14:54 51.41907 9.39346 848 ft 17 kts 130°
2026-05-05 14:55 51.41803 9.39395 859 ft 10 kts 95°
2026-05-05 14:55 51.41798 9.39467 859 ft 9 kts 104°
2026-05-05 14:55 51.41749 9.39497 859 ft 7 kts 142°
2026-05-05 14:55 51.41755 9.39524 859 ft 0 kts 14°